sensor_id;sensor_type;location;lat;lon;timestamp;noise_LAeq;noise_LA_min;noise_LA_max;noise_LA01;noise_LA95
1754;Laerm;58380;48.312;9.246;2023-11-19T07:34:30;43.08;31.45;59.85;;
1754;Laerm;58380;48.312;9.246;2023-11-19T07:37:30;43.82;34.29;60.03;;
1754;Laerm;58380;48.312;9.246;2023-11-19T07:40:31;44.66;31.65;60.02;;
1754;Laerm;58380;48.312;9.246;2023-11-19T07:43:31;43.13;31.16;59.91;;
1754;Laerm;58380;48.312;9.246;2023-11-19T07:46:32;43.43;32.85;63.31;;
1754;Laerm;58380;48.312;9.246;2023-11-19T07:49:33;43.23;31.56;66.06;;
1754;Laerm;58380;48.312;9.246;2023-11-19T07:52:33;39.90;30.62;57.88;;
1754;Laerm;58380;48.312;9.246;2023-11-19T07:55:34;42.99;31.42;61.00;;
1754;Laerm;58380;48.312;9.246;2023-11-19T07:58:35;44.32;32.35;64.25;;
1754;Laerm;58380;48.312;9.246;2023-11-19T08:01:35;44.06;33.54;60.58;;
1754;Laerm;58380;48.312;9.246;2023-11-19T08:04:35;46.53;34.54;70.54;;
1754;Laerm;58380;48.312;9.246;2023-11-19T08:07:36;46.90;32.34;63.97;;
1754;Laerm;58380;48.312;9.246;2023-11-19T08:10:36;45.38;34.17;64.92;;
1754;Laerm;58380;48.312;9.246;2023-11-19T08:13:37;44.85;33.10;55.94;;
1754;Laerm;58380;48.312;9.246;2023-11-19T08:16:39;42.61;31.68;59.07;;
1754;Laerm;58380;48.312;9.246;2023-11-19T08:19:40;45.12;32.69;59.53;;
1754;Laerm;58380;48.312;9.246;2023-11-19T08:22:40;43.19;32.89;66.14;;
1754;Laerm;58380;48.312;9.246;2023-11-19T08:25:40;42.32;31.59;60.70;;
1754;Laerm;58380;48.312;9.246;2023-11-19T08:28:41;58.96;32.60;87.82;;
1754;Laerm;58380;48.312;9.246;2023-11-19T08:31:42;42.57;33.38;54.28;;
1754;Laerm;58380;48.312;9.246;2023-11-19T08:34:42;40.25;32.08;52.80;;
1754;Laerm;58380;48.312;9.246;2023-11-19T08:37:43;50.33;31.27;65.56;;
1754;Laerm;58380;48.312;9.246;2023-11-19T08:40:45;41.74;30.95;56.94;;
1754;Laerm;58380;48.312;9.246;2023-11-19T08:43:45;43.88;33.18;51.79;;
1754;Laerm;58380;48.312;9.246;2023-11-19T08:46:49;44.70;37.96;58.34;;
1754;Laerm;58380;48.312;9.246;2023-11-19T08:49:53;43.16;33.73;57.86;;
1754;Laerm;58380;48.312;9.246;2023-11-19T08:52:55;43.91;31.99;60.32;;
1754;Laerm;58380;48.312;9.246;2023-11-19T08:55:56;45.09;36.49;54.64;;
1754;Laerm;58380;48.312;9.246;2023-11-19T08:58:56;45.95;33.80;57.89;;
1754;Laerm;58380;48.312;9.246;2023-11-19T09:01:57;42.99;32.18;57.51;;
1754;Laerm;58380;48.312;9.246;2023-11-19T09:04:57;41.31;30.43;59.18;;
1754;Laerm;58380;48.312;9.246;2023-11-19T09:07:58;47.32;32.66;68.54;;
1754;Laerm;58380;48.312;9.246;2023-11-19T09:10:59;48.62;32.60;69.77;;
1754;Laerm;58380;48.312;9.246;2023-11-19T09:13:59;44.43;33.77;59.33;;
1754;Laerm;58380;48.312;9.246;2023-11-19T09:16:59;45.06;34.62;57.85;;
1754;Laerm;58380;48.312;9.246;2023-11-19T09:20:00;53.35;32.34;73.97;;
1754;Laerm;58380;48.312;9.246;2023-11-19T09:23:00;53.17;36.65;71.49;;
1754;Laerm;58380;48.312;9.246;2023-11-19T09:26:01;49.23;34.14;64.30;;
1754;Laerm;58380;48.312;9.246;2023-11-19T09:29:02;47.99;32.10;66.66;;
1754;Laerm;58380;48.312;9.246;2023-11-19T09:32:02;44.23;32.92;64.15;;
1754;Laerm;58380;48.312;9.246;2023-11-19T09:35:04;48.46;33.97;67.74;;
1754;Laerm;58380;48.312;9.246;2023-11-19T09:38:04;47.31;33.79;75.74;;
1754;Laerm;58380;48.312;9.246;2023-11-19T09:41:06;46.89;37.73;60.48;;
1754;Laerm;58380;48.312;9.246;2023-11-19T09:44:10;44.31;34.86;51.61;;
1754;Laerm;58380;48.312;9.246;2023-11-19T09:47:14;46.45;33.45;62.60;;
1754;Laerm;58380;48.312;9.246;2023-11-19T09:50:17;43.20;31.98;52.46;;
1754;Laerm;58380;48.312;9.246;2023-11-19T09:53:21;44.65;32.76;55.27;;
1754;Laerm;58380;48.312;9.246;2023-11-19T09:56:23;43.16;33.76;58.80;;
1754;Laerm;58380;48.312;9.246;2023-11-19T09:59:23;48.57;32.85;78.49;;
1754;Laerm;58380;48.312;9.246;2023-11-19T10:02:26;46.22;34.00;55.48;;
1754;Laerm;58380;48.312;9.246;2023-11-19T10:05:29;45.23;33.84;60.45;;
1754;Laerm;58380;48.312;9.246;2023-11-19T10:08:30;42.44;34.00;53.70;;
1754;Laerm;58380;48.312;9.246;2023-11-19T10:11:30;46.28;34.21;66.11;;
1754;Laerm;58380;48.312;9.246;2023-11-19T10:14:31;44.83;35.32;64.29;;
1754;Laerm;58380;48.312;9.246;2023-11-19T10:17:35;50.26;37.24;78.45;;
1754;Laerm;58380;48.312;9.246;2023-11-19T10:20:41;45.84;37.01;68.39;;
1754;Laerm;58380;48.312;9.246;2023-11-19T10:23:52;46.99;34.03;69.73;;
1754;Laerm;58380;48.312;9.246;2023-11-19T10:26:56;48.42;38.67;66.56;;
1754;Laerm;58380;48.312;9.246;2023-11-19T10:29:59;47.18;36.31;72.10;;
1754;Laerm;58380;48.312;9.246;2023-11-19T10:33:09;48.82;33.62;68.13;;
1754;Laerm;58380;48.312;9.246;2023-11-19T10:36:09;49.10;34.28;74.90;;
1754;Laerm;58380;48.312;9.246;2023-11-19T10:39:10;47.59;34.62;75.67;;
1754;Laerm;58380;48.312;9.246;2023-11-19T10:42:17;43.47;32.68;60.48;;
1754;Laerm;58380;48.312;9.246;2023-11-19T10:45:23;47.05;33.00;72.53;;
1754;Laerm;58380;48.312;9.246;2023-11-19T10:48:24;45.15;36.07;67.90;;
1754;Laerm;58380;48.312;9.246;2023-11-19T10:51:25;45.26;34.03;69.71;;
1754;Laerm;58380;48.312;9.246;2023-11-19T10:54:26;45.88;35.95;61.25;;
1754;Laerm;58380;48.312;9.246;2023-11-19T10:57:32;44.82;34.83;72.40;;
1754;Laerm;58380;48.312;9.246;2023-11-19T11:00:38;44.55;37.02;58.27;;
1754;Laerm;58380;48.312;9.246;2023-11-19T11:03:40;44.30;35.11;61.66;;
1754;Laerm;58380;48.312;9.246;2023-11-19T11:06:41;45.88;33.52;66.97;;
1754;Laerm;58380;48.312;9.246;2023-11-19T11:09:44;48.56;32.79;76.58;;
1754;Laerm;58380;48.312;9.246;2023-11-19T11:12:46;65.11;34.23;84.90;;
1754;Laerm;58380;48.312;9.246;2023-11-19T11:15:51;65.77;35.88;84.25;;
1754;Laerm;58380;48.312;9.246;2023-11-19T11:18:52;68.97;36.56;94.53;;
1754;Laerm;58380;48.312;9.246;2023-11-19T11:21:56;58.08;37.28;83.93;;
1754;Laerm;58380;48.312;9.246;2023-11-19T11:25:22;64.70;31.65;83.75;;
1754;Laerm;58380;48.312;9.246;2023-11-19T11:28:41;58.32;32.65;84.06;;
1754;Laerm;58380;48.312;9.246;2023-11-19T11:32:08;61.86;32.40;94.87;;
1754;Laerm;58380;48.312;9.246;2023-11-19T11:35:35;54.92;31.40;83.52;;
1754;Laerm;58380;48.312;9.246;2023-11-19T11:38:42;44.83;35.67;65.15;;
1754;Laerm;58380;48.312;9.246;2023-11-19T11:41:42;78.25;36.38;103.16;;
1754;Laerm;58380;48.312;9.246;2023-11-19T11:45:05;55.80;35.44;77.43;;
1754;Laerm;58380;48.312;9.246;2023-11-19T11:48:11;71.90;34.38;99.85;;
1754;Laerm;58380;48.312;9.246;2023-11-19T11:51:11;54.11;34.36;79.24;;
1754;Laerm;58380;48.312;9.246;2023-11-19T11:57:18;52.30;37.27;65.71;;
1754;Laerm;58380;48.312;9.246;2023-11-19T12:00:40;44.95;33.46;62.87;;
1754;Laerm;58380;48.312;9.246;2023-11-19T12:03:40;44.09;34.84;57.92;;
1754;Laerm;58380;48.312;9.246;2023-11-19T12:06:41;54.84;33.65;81.79;;
1754;Laerm;58380;48.312;9.246;2023-11-19T12:09:47;51.76;36.13;72.68;;
1754;Laerm;58380;48.312;9.246;2023-11-19T12:12:47;52.36;35.36;63.42;;
1754;Laerm;58380;48.312;9.246;2023-11-19T12:19:03;49.29;36.77;64.99;;
1754;Laerm;58380;48.312;9.246;2023-11-19T12:22:10;54.08;33.01;63.87;;
1754;Laerm;58380;48.312;9.246;2023-11-19T12:25:13;55.57;33.81;67.50;;
1754;Laerm;58380;48.312;9.246;2023-11-19T12:28:15;55.22;36.69;64.30;;
1754;Laerm;58380;48.312;9.246;2023-11-19T12:31:19;53.63;37.54;64.71;;
1754;Laerm;58380;48.312;9.246;2023-11-19T12:34:19;49.86;35.72;63.42;;
1754;Laerm;58380;48.312;9.246;2023-11-19T12:37:20;52.15;36.08;65.62;;
1754;Laerm;58380;48.312;9.246;2023-11-19T12:40:24;53.48;36.62;64.29;;
1754;Laerm;58380;48.312;9.246;2023-11-19T12:43:24;55.02;38.92;64.79;;
1754;Laerm;58380;48.312;9.246;2023-11-19T12:46:25;46.34;37.18;59.04;;
1754;Laerm;58380;48.312;9.246;2023-11-19T12:49:27;48.72;36.96;60.83;;
1754;Laerm;58380;48.312;9.246;2023-11-19T12:52:28;46.14;33.36;58.32;;
1754;Laerm;58380;48.312;9.246;2023-11-19T12:55:29;46.87;37.50;57.78;;
1754;Laerm;58380;48.312;9.246;2023-11-19T12:58:35;41.03;33.61;54.95;;
1754;Laerm;58380;48.312;9.246;2023-11-19T13:01:36;44.12;37.20;54.04;;
1754;Laerm;58380;48.312;9.246;2023-11-19T13:04:38;43.44;34.61;55.70;;
1754;Laerm;58380;48.312;9.246;2023-11-19T13:07:39;41.94;34.79;56.66;;
1754;Laerm;58380;48.312;9.246;2023-11-19T13:10:50;42.27;35.15;51.12;;
1754;Laerm;58380;48.312;9.246;2023-11-19T13:13:58;41.98;35.72;53.41;;
1754;Laerm;58380;48.312;9.246;2023-11-19T13:16:59;42.97;34.43;52.65;;
1754;Laerm;58380;48.312;9.246;2023-11-19T13:20:04;43.63;39.01;52.04;;
1754;Laerm;58380;48.312;9.246;2023-11-19T13:23:06;41.52;35.64;50.49;;
1754;Laerm;58380;48.312;9.246;2023-11-19T13:26:07;42.72;34.69;54.26;;
1754;Laerm;58380;48.312;9.246;2023-11-19T13:29:07;41.84;36.99;58.88;;
1754;Laerm;58380;48.312;9.246;2023-11-19T13:32:08;42.15;35.99;53.04;;
1754;Laerm;58380;48.312;9.246;2023-11-19T13:35:09;42.14;34.96;50.46;;
1754;Laerm;58380;48.312;9.246;2023-11-19T13:38:09;42.73;36.21;49.93;;
1754;Laerm;58380;48.312;9.246;2023-11-19T13:41:10;42.21;33.62;50.30;;
1754;Laerm;58380;48.312;9.246;2023-11-19T13:44:12;42.33;36.21;51.44;;
1754;Laerm;58380;48.312;9.246;2023-11-19T13:47:12;42.95;37.83;52.08;;
1754;Laerm;58380;48.312;9.246;2023-11-19T13:50:15;42.82;37.23;51.24;;
1754;Laerm;58380;48.312;9.246;2023-11-19T13:53:17;41.46;35.16;48.90;;
1754;Laerm;58380;48.312;9.246;2023-11-19T13:56:17;43.57;36.88;52.04;;
1754;Laerm;58380;48.312;9.246;2023-11-19T13:59:18;43.74;38.16;55.81;;
1754;Laerm;58380;48.312;9.246;2023-11-19T14:02:18;42.53;35.66;57.32;;
1754;Laerm;58380;48.312;9.246;2023-11-19T14:05:19;42.87;36.08;49.55;;
1754;Laerm;58380;48.312;9.246;2023-11-19T14:08:19;43.18;35.76;51.94;;
1754;Laerm;58380;48.312;9.246;2023-11-19T14:11:20;42.36;36.62;51.14;;
1754;Laerm;58380;48.312;9.246;2023-11-19T14:14:20;41.26;35.00;51.78;;
1754;Laerm;58380;48.312;9.246;2023-11-19T14:17:20;41.58;35.32;49.57;;
1754;Laerm;58380;48.312;9.246;2023-11-19T14:20:21;42.09;35.72;50.25;;
1754;Laerm;58380;48.312;9.246;2023-11-19T14:23:21;40.93;33.53;50.87;;
1754;Laerm;58380;48.312;9.246;2023-11-19T14:26:22;40.99;35.91;48.32;;
1754;Laerm;58380;48.312;9.246;2023-11-19T14:29:22;42.16;36.66;51.01;;
1754;Laerm;58380;48.312;9.246;2023-11-19T14:32:23;44.02;36.87;54.92;;
1754;Laerm;58380;48.312;9.246;2023-11-19T14:35:23;43.55;36.49;69.78;;
1754;Laerm;58380;48.312;9.246;2023-11-19T14:38:25;48.81;35.86;67.45;;
1754;Laerm;58380;48.312;9.246;2023-11-19T14:41:25;41.88;37.03;54.57;;
1754;Laerm;58380;48.312;9.246;2023-11-19T14:44:26;42.14;33.89;53.10;;
1754;Laerm;58380;48.312;9.246;2023-11-19T14:47:27;40.59;34.24;46.36;;
1754;Laerm;58380;48.312;9.246;2023-11-19T14:50:27;44.04;35.93;53.55;;
1754;Laerm;58380;48.312;9.246;2023-11-19T14:53:28;41.50;36.54;52.41;;
1754;Laerm;58380;48.312;9.246;2023-11-19T14:56:28;41.42;34.93;53.21;;
1754;Laerm;58380;48.312;9.246;2023-11-19T14:59:29;41.36;34.68;51.24;;
1754;Laerm;58380;48.312;9.246;2023-11-19T15:02:29;42.31;34.85;53.47;;
1754;Laerm;58380;48.312;9.246;2023-11-19T15:05:30;42.43;36.85;53.28;;
1754;Laerm;58380;48.312;9.246;2023-11-19T15:08:30;43.52;37.63;51.72;;
1754;Laerm;58380;48.312;9.246;2023-11-19T15:11:31;41.87;34.60;54.29;;
1754;Laerm;58380;48.312;9.246;2023-11-19T15:14:31;44.06;33.57;64.28;;
1754;Laerm;58380;48.312;9.246;2023-11-19T15:17:31;44.24;36.22;64.72;;
1754;Laerm;58380;48.312;9.246;2023-11-19T15:20:32;42.60;37.31;56.27;;
1754;Laerm;58380;48.312;9.246;2023-11-19T15:23:32;42.74;34.82;61.00;;
1754;Laerm;58380;48.312;9.246;2023-11-19T15:26:34;42.00;34.63;49.33;;
1754;Laerm;58380;48.312;9.246;2023-11-19T15:29:35;43.28;35.67;57.06;;
1754;Laerm;58380;48.312;9.246;2023-11-19T15:32:35;42.08;34.53;59.14;;
1754;Laerm;58380;48.312;9.246;2023-11-19T15:35:36;42.16;35.23;56.48;;
1754;Laerm;58380;48.312;9.246;2023-11-19T15:38:36;42.73;35.71;61.36;;
1754;Laerm;58380;48.312;9.246;2023-11-19T15:41:37;41.61;34.07;50.51;;
1754;Laerm;58380;48.312;9.246;2023-11-19T15:44:37;42.91;36.81;55.34;;
1754;Laerm;58380;48.312;9.246;2023-11-19T15:47:39;42.27;35.05;49.99;;
1754;Laerm;58380;48.312;9.246;2023-11-19T15:50:39;43.20;35.00;56.54;;
1754;Laerm;58380;48.312;9.246;2023-11-19T15:53:40;42.77;34.32;54.77;;
1754;Laerm;58380;48.312;9.246;2023-11-19T15:56:41;43.19;36.12;55.40;;
1754;Laerm;58380;48.312;9.246;2023-11-19T15:59:41;43.62;36.53;52.33;;
1754;Laerm;58380;48.312;9.246;2023-11-19T16:02:41;43.80;35.09;56.81;;
1754;Laerm;58380;48.312;9.246;2023-11-19T16:05:42;42.63;35.63;53.17;;
1754;Laerm;58380;48.312;9.246;2023-11-19T16:08:42;45.14;35.43;56.62;;
1754;Laerm;58380;48.312;9.246;2023-11-19T16:11:43;44.48;33.22;55.81;;
1754;Laerm;58380;48.312;9.246;2023-11-19T16:14:44;42.78;33.81;52.38;;
1754;Laerm;58380;48.312;9.246;2023-11-19T16:17:44;42.34;35.11;50.03;;
1754;Laerm;58380;48.312;9.246;2023-11-19T16:20:44;42.20;35.14;54.80;;
1754;Laerm;58380;48.312;9.246;2023-11-19T16:23:45;42.10;34.00;52.95;;
1754;Laerm;58380;48.312;9.246;2023-11-19T16:26:46;43.05;35.72;50.17;;
1754;Laerm;58380;48.312;9.246;2023-11-19T16:29:48;40.80;33.10;53.14;;
1754;Laerm;58380;48.312;9.246;2023-11-19T16:33:07;41.65;35.62;50.99;;
1754;Laerm;58380;48.312;9.246;2023-11-19T16:36:12;42.16;32.89;52.09;;
1754;Laerm;58380;48.312;9.246;2023-11-19T16:39:13;41.59;35.03;52.83;;
1754;Laerm;58380;48.312;9.246;2023-11-19T16:42:14;42.81;32.87;50.59;;
1754;Laerm;58380;48.312;9.246;2023-11-19T16:45:15;42.89;35.30;57.12;;
1754;Laerm;58380;48.312;9.246;2023-11-19T16:48:16;42.22;34.82;53.46;;
1754;Laerm;58380;48.312;9.246;2023-11-19T16:51:17;44.34;37.43;52.65;;
1754;Laerm;58380;48.312;9.246;2023-11-19T16:54:18;43.29;31.89;49.78;;
1754;Laerm;58380;48.312;9.246;2023-11-19T16:57:18;43.90;33.08;55.84;;
1754;Laerm;58380;48.312;9.246;2023-11-19T17:00:21;40.57;30.93;48.00;;
1754;Laerm;58380;48.312;9.246;2023-11-19T17:03:21;44.27;37.20;53.33;;
1754;Laerm;58380;48.312;9.246;2023-11-19T17:06:22;43.25;33.42;51.10;;
1754;Laerm;58380;48.312;9.246;2023-11-19T17:09:23;41.70;34.69;49.71;;
1754;Laerm;58380;48.312;9.246;2023-11-19T17:12:24;41.01;33.16;50.29;;
1754;Laerm;58380;48.312;9.246;2023-11-19T17:15:24;43.83;33.67;52.89;;
1754;Laerm;58380;48.312;9.246;2023-11-19T17:18:25;42.71;32.36;50.64;;
1754;Laerm;58380;48.312;9.246;2023-11-19T17:21:25;42.52;35.54;53.18;;
1754;Laerm;58380;48.312;9.246;2023-11-19T17:24:25;43.94;35.42;53.31;;
1754;Laerm;58380;48.312;9.246;2023-11-19T17:27:26;41.86;31.25;62.89;;
1754;Laerm;58380;48.312;9.246;2023-11-19T17:30:28;41.67;32.32;54.85;;
1754;Laerm;58380;48.312;9.246;2023-11-19T17:33:28;40.56;30.56;54.38;;
1754;Laerm;58380;48.312;9.246;2023-11-19T17:36:29;40.84;32.19;50.42;;
1754;Laerm;58380;48.312;9.246;2023-11-19T17:39:30;41.17;33.87;51.72;;
1754;Laerm;58380;48.312;9.246;2023-11-19T17:42:31;43.53;36.44;51.37;;
1754;Laerm;58380;48.312;9.246;2023-11-19T17:45:31;42.34;36.05;48.94;;
1754;Laerm;58380;48.312;9.246;2023-11-19T17:48:32;41.74;34.36;48.76;;
1754;Laerm;58380;48.312;9.246;2023-11-19T17:51:32;41.39;34.15;48.40;;
1754;Laerm;58380;48.312;9.246;2023-11-19T17:54:33;42.34;33.97;52.24;;
1754;Laerm;58380;48.312;9.246;2023-11-19T17:57:33;42.54;35.40;50.29;;
1754;Laerm;58380;48.312;9.246;2023-11-19T18:00:34;43.59;37.01;52.36;;
1754;Laerm;58380;48.312;9.246;2023-11-19T18:03:35;42.21;34.60;49.99;;
1754;Laerm;58380;48.312;9.246;2023-11-19T18:06:35;41.69;32.69;50.44;;
1754;Laerm;58380;48.312;9.246;2023-11-19T18:09:37;42.02;32.40;49.20;;
1754;Laerm;58380;48.312;9.246;2023-11-19T18:12:38;46.61;32.53;66.15;;
1754;Laerm;58380;48.312;9.246;2023-11-19T18:15:39;41.48;31.63;50.43;;
1754;Laerm;58380;48.312;9.246;2023-11-19T18:18:39;42.46;34.34;54.34;;
1754;Laerm;58380;48.312;9.246;2023-11-19T18:21:40;41.87;33.87;57.09;;
1754;Laerm;58380;48.312;9.246;2023-11-19T18:24:40;42.02;34.55;52.16;;
1754;Laerm;58380;48.312;9.246;2023-11-19T18:27:41;42.61;32.38;49.91;;
1754;Laerm;58380;48.312;9.246;2023-11-19T18:30:42;42.46;35.54;50.85;;
1754;Laerm;58380;48.312;9.246;2023-11-19T18:33:43;39.32;31.36;50.58;;
1754;Laerm;58380;48.312;9.246;2023-11-19T18:36:43;41.60;31.40;60.88;;
1754;Laerm;58380;48.312;9.246;2023-11-19T18:39:44;40.75;32.14;52.85;;
1754;Laerm;58380;48.312;9.246;2023-11-19T18:42:44;40.29;30.26;47.57;;
1754;Laerm;58380;48.312;9.246;2023-11-19T18:45:45;41.51;33.24;48.59;;
1754;Laerm;58380;48.312;9.246;2023-11-19T18:48:45;40.64;30.19;51.74;;
1754;Laerm;58380;48.312;9.246;2023-11-19T18:51:45;39.79;32.03;48.43;;
1754;Laerm;58380;48.312;9.246;2023-11-19T18:54:46;39.79;30.97;47.34;;
1754;Laerm;58380;48.312;9.246;2023-11-19T18:57:46;39.09;30.30;50.11;;
1754;Laerm;58380;48.312;9.246;2023-11-19T19:00:48;40.04;32.09;53.74;;
1754;Laerm;58380;48.312;9.246;2023-11-19T19:03:50;40.48;33.89;50.55;;
1754;Laerm;58380;48.312;9.246;2023-11-19T19:06:51;41.13;32.78;49.94;;
1754;Laerm;58380;48.312;9.246;2023-11-19T19:09:52;36.28;30.19;47.35;;
1754;Laerm;58380;48.312;9.246;2023-11-19T19:12:55;39.90;31.62;48.65;;
1754;Laerm;58380;48.312;9.246;2023-11-19T19:15:55;38.51;31.86;51.80;;
1754;Laerm;58380;48.312;9.246;2023-11-19T19:18:56;40.14;32.83;49.31;;
1754;Laerm;58380;48.312;9.246;2023-11-19T19:21:56;39.70;32.91;50.52;;
1754;Laerm;58380;48.312;9.246;2023-11-19T19:24:57;40.90;31.90;52.53;;
1754;Laerm;58380;48.312;9.246;2023-11-19T19:27:58;39.86;33.82;50.79;;
1754;Laerm;58380;48.312;9.246;2023-11-19T19:30:58;40.31;33.33;48.10;;
1754;Laerm;58380;48.312;9.246;2023-11-19T19:34:00;39.26;32.12;49.07;;
1754;Laerm;58380;48.312;9.246;2023-11-19T19:37:00;39.58;31.36;49.01;;
1754;Laerm;58380;48.312;9.246;2023-11-19T19:40:02;37.63;30.69;47.77;;
1754;Laerm;58380;48.312;9.246;2023-11-19T19:43:04;43.99;33.26;63.25;;
1754;Laerm;58380;48.312;9.246;2023-11-19T19:46:05;39.07;32.42;49.25;;
1754;Laerm;58380;48.312;9.246;2023-11-19T19:49:05;38.63;32.14;46.83;;
1754;Laerm;58380;48.312;9.246;2023-11-19T19:52:08;40.85;33.97;49.80;;
1754;Laerm;58380;48.312;9.246;2023-11-19T19:55:09;37.77;31.52;47.52;;
1754;Laerm;58380;48.312;9.246;2023-11-19T19:58:10;41.49;33.52;52.99;;
1754;Laerm;58380;48.312;9.246;2023-11-19T20:01:12;38.86;31.54;47.02;;
1754;Laerm;58380;48.312;9.246;2023-11-19T20:04:12;38.31;31.14;47.21;;
1754;Laerm;58380;48.312;9.246;2023-11-19T20:07:12;38.69;31.31;49.44;;
1754;Laerm;58380;48.312;9.246;2023-11-19T20:10:13;42.42;31.82;67.77;;
1754;Laerm;58380;48.312;9.246;2023-11-19T20:13:14;37.94;32.36;50.01;;
1754;Laerm;58380;48.312;9.246;2023-11-19T20:16:15;38.99;30.71;49.84;;
1754;Laerm;58380;48.312;9.246;2023-11-19T20:19:15;39.04;31.75;48.86;;
1754;Laerm;58380;48.312;9.246;2023-11-19T20:22:16;36.90;30.37;47.52;;
1754;Laerm;58380;48.312;9.246;2023-11-19T20:25:16;38.43;30.62;48.75;;
1754;Laerm;58380;48.312;9.246;2023-11-19T20:28:16;35.64;29.91;46.30;;
1754;Laerm;58380;48.312;9.246;2023-11-19T20:31:17;37.03;30.29;47.17;;
1754;Laerm;58380;48.312;9.246;2023-11-19T20:34:18;36.14;29.43;48.13;;
1754;Laerm;58380;48.312;9.246;2023-11-19T20:37:18;37.16;30.45;46.09;;
1754;Laerm;58380;48.312;9.246;2023-11-19T20:40:19;38.15;29.83;48.12;;
1754;Laerm;58380;48.312;9.246;2023-11-19T20:43:21;36.82;29.95;45.17;;
1754;Laerm;58380;48.312;9.246;2023-11-19T20:46:22;38.49;31.31;45.44;;
1754;Laerm;58380;48.312;9.246;2023-11-19T20:49:23;35.73;30.07;45.96;;
1754;Laerm;58380;48.312;9.246;2023-11-19T20:52:23;38.62;30.47;49.35;;
1754;Laerm;58380;48.312;9.246;2023-11-19T20:55:24;38.95;30.50;53.37;;
1754;Laerm;58380;48.312;9.246;2023-11-19T20:58:26;37.75;29.48;45.95;;
1754;Laerm;58380;48.312;9.246;2023-11-19T21:01:26;34.05;29.47;42.58;;
1754;Laerm;58380;48.312;9.246;2023-11-19T21:04:26;38.02;30.54;47.68;;
1754;Laerm;58380;48.312;9.246;2023-11-19T21:07:27;35.97;29.90;47.69;;
1754;Laerm;58380;48.312;9.246;2023-11-19T21:10:27;38.31;28.88;48.61;;
1754;Laerm;58380;48.312;9.246;2023-11-19T21:13:28;36.45;28.83;49.52;;
1754;Laerm;58380;48.312;9.246;2023-11-19T21:16:29;36.35;29.08;46.81;;
1754;Laerm;58380;48.312;9.246;2023-11-19T21:19:29;35.33;29.67;44.93;;
1754;Laerm;58380;48.312;9.246;2023-11-19T21:22:30;36.86;31.02;46.71;;
1754;Laerm;58380;48.312;9.246;2023-11-19T21:25:31;38.09;29.22;52.68;;
1754;Laerm;58380;48.312;9.246;2023-11-19T21:28:32;36.66;29.54;45.33;;
1754;Laerm;58380;48.312;9.246;2023-11-19T21:31:34;37.07;29.80;49.25;;
1754;Laerm;58380;48.312;9.246;2023-11-19T21:34:35;42.06;31.03;57.13;;
1754;Laerm;58380;48.312;9.246;2023-11-19T21:37:35;39.50;29.53;53.32;;
1754;Laerm;58380;48.312;9.246;2023-11-19T21:40:36;35.29;29.64;45.98;;
1754;Laerm;58380;48.312;9.246;2023-11-19T21:43:36;38.80;29.42;54.85;;
1754;Laerm;58380;48.312;9.246;2023-11-19T21:46:37;38.40;28.72;48.72;;
1754;Laerm;58380;48.312;9.246;2023-11-19T21:49:37;34.89;28.64;45.36;;
1754;Laerm;58380;48.312;9.246;2023-11-19T21:52:40;35.68;29.78;45.57;;
1754;Laerm;58380;48.312;9.246;2023-11-19T21:55:41;37.49;29.22;51.29;;
1754;Laerm;58380;48.312;9.246;2023-11-19T21:58:43;36.40;29.43;45.76;;
1754;Laerm;58380;48.312;9.246;2023-11-19T22:01:43;35.88;29.27;45.55;;
1754;Laerm;58380;48.312;9.246;2023-11-19T22:04:44;32.68;29.26;42.45;;
